sensor_id;sensor_type;location;lat;lon;timestamp;temperature;humidity
3418;DHT22;68007;51.312;12.372;2023-07-20T00:00:19;22.30;74.20
3418;DHT22;68007;51.312;12.372;2023-07-20T00:02:50;22.30;74.60
3418;DHT22;68007;51.312;12.372;2023-07-20T00:05:19;22.30;74.10
3418;DHT22;68007;51.312;12.372;2023-07-20T00:07:47;22.30;74.70
3418;DHT22;68007;51.312;12.372;2023-07-20T00:10:18;22.30;74.50
3418;DHT22;68007;51.312;12.372;2023-07-20T00:12:45;22.30;74.20
3418;DHT22;68007;51.312;12.372;2023-07-20T00:15:13;22.30;74.40
3418;DHT22;68007;51.312;12.372;2023-07-20T00:17:41;22.30;74.20
3418;DHT22;68007;51.312;12.372;2023-07-20T00:20:09;22.30;74.20
3418;DHT22;68007;51.312;12.372;2023-07-20T00:22:38;22.20;74.30
3418;DHT22;68007;51.312;12.372;2023-07-20T00:25:07;22.30;74.50
3418;DHT22;68007;51.312;12.372;2023-07-20T00:27:34;22.30;74.20
3418;DHT22;68007;51.312;12.372;2023-07-20T00:30:03;22.20;74.60
3418;DHT22;68007;51.312;12.372;2023-07-20T00:32:30;22.30;74.50
3418;DHT22;68007;51.312;12.372;2023-07-20T00:34:58;22.30;74.60
3418;DHT22;68007;51.312;12.372;2023-07-20T00:37:25;22.20;74.50
3418;DHT22;68007;51.312;12.372;2023-07-20T00:39:54;22.20;74.50
3418;DHT22;68007;51.312;12.372;2023-07-20T00:42:22;22.30;74.70
3418;DHT22;68007;51.312;12.372;2023-07-20T00:44:50;22.20;74.90
3418;DHT22;68007;51.312;12.372;2023-07-20T00:47:18;22.20;75.00
3418;DHT22;68007;51.312;12.372;2023-07-20T00:49:46;22.20;75.10
3418;DHT22;68007;51.312;12.372;2023-07-20T00:52:14;22.20;75.40
3418;DHT22;68007;51.312;12.372;2023-07-20T00:54:42;22.20;75.30
3418;DHT22;68007;51.312;12.372;2023-07-20T00:57:13;22.20;75.00
3418;DHT22;68007;51.312;12.372;2023-07-20T00:59:41;22.20;74.90
3418;DHT22;68007;51.312;12.372;2023-07-20T01:02:09;22.10;74.80
3418;DHT22;68007;51.312;12.372;2023-07-20T01:04:37;22.00;74.90
3418;DHT22;68007;51.312;12.372;2023-07-20T01:07:10;22.00;75.00
3418;DHT22;68007;51.312;12.372;2023-07-20T01:09:44;22.00;74.90
3418;DHT22;68007;51.312;12.372;2023-07-20T01:12:22;22.00;75.10
3418;DHT22;68007;51.312;12.372;2023-07-20T01:14:52;22.00;75.00
3418;DHT22;68007;51.312;12.372;2023-07-20T01:17:20;22.00;75.00
3418;DHT22;68007;51.312;12.372;2023-07-20T01:19:48;22.00;75.30
3418;DHT22;68007;51.312;12.372;2023-07-20T01:22:28;22.00;75.00
3418;DHT22;68007;51.312;12.372;2023-07-20T01:25:21;22.00;74.60
3418;DHT22;68007;51.312;12.372;2023-07-20T01:28:16;22.00;74.90
3418;DHT22;68007;51.312;12.372;2023-07-20T01:30:59;22.00;75.10
3418;DHT22;68007;51.312;12.372;2023-07-20T01:33:30;21.90;75.00
3418;DHT22;68007;51.312;12.372;2023-07-20T01:35:59;21.90;75.20
3418;DHT22;68007;51.312;12.372;2023-07-20T01:38:28;21.90;75.10
3418;DHT22;68007;51.312;12.372;2023-07-20T01:40:57;21.90;75.20
3418;DHT22;68007;51.312;12.372;2023-07-20T01:43:25;21.90;75.00
3418;DHT22;68007;51.312;12.372;2023-07-20T01:45:52;21.90;75.30
3418;DHT22;68007;51.312;12.372;2023-07-20T01:48:20;21.90;75.20
3418;DHT22;68007;51.312;12.372;2023-07-20T01:50:49;21.90;75.80
3418;DHT22;68007;51.312;12.372;2023-07-20T01:53:16;21.80;75.00
3418;DHT22;68007;51.312;12.372;2023-07-20T01:55:44;21.80;75.20
3418;DHT22;68007;51.312;12.372;2023-07-20T01:58:11;21.80;75.30
3418;DHT22;68007;51.312;12.372;2023-07-20T02:00:39;21.80;75.30
3418;DHT22;68007;51.312;12.372;2023-07-20T02:03:06;21.80;75.50
3418;DHT22;68007;51.312;12.372;2023-07-20T02:05:34;21.70;75.40
3418;DHT22;68007;51.312;12.372;2023-07-20T02:08:03;21.70;75.70
3418;DHT22;68007;51.312;12.372;2023-07-20T02:10:30;21.70;75.70
3418;DHT22;68007;51.312;12.372;2023-07-20T02:12:58;21.70;76.10
3418;DHT22;68007;51.312;12.372;2023-07-20T02:15:25;21.60;76.00
3418;DHT22;68007;51.312;12.372;2023-07-20T02:17:53;21.60;76.00
3418;DHT22;68007;51.312;12.372;2023-07-20T02:20:21;21.60;76.30
3418;DHT22;68007;51.312;12.372;2023-07-20T02:22:48;21.60;76.10
3418;DHT22;68007;51.312;12.372;2023-07-20T02:25:16;21.60;76.30
3418;DHT22;68007;51.312;12.372;2023-07-20T02:27:44;21.60;76.20
3418;DHT22;68007;51.312;12.372;2023-07-20T02:30:11;21.60;76.10
3418;DHT22;68007;51.312;12.372;2023-07-20T02:32:39;21.60;76.10
3418;DHT22;68007;51.312;12.372;2023-07-20T02:35:10;21.60;76.40
3418;DHT22;68007;51.312;12.372;2023-07-20T02:37:38;21.50;76.60
3418;DHT22;68007;51.312;12.372;2023-07-20T02:40:06;21.50;77.00
3418;DHT22;68007;51.312;12.372;2023-07-20T02:42:36;21.50;76.80
3418;DHT22;68007;51.312;12.372;2023-07-20T02:45:04;21.50;76.80
3418;DHT22;68007;51.312;12.372;2023-07-20T02:47:32;21.50;76.90
3418;DHT22;68007;51.312;12.372;2023-07-20T02:50:00;21.50;77.20
3418;DHT22;68007;51.312;12.372;2023-07-20T02:52:27;21.50;77.10
3418;DHT22;68007;51.312;12.372;2023-07-20T02:54:56;21.50;77.10
3418;DHT22;68007;51.312;12.372;2023-07-20T02:57:23;21.40;77.30
3418;DHT22;68007;51.312;12.372;2023-07-20T02:59:52;21.40;77.50
3418;DHT22;68007;51.312;12.372;2023-07-20T03:02:20;21.40;77.10
3418;DHT22;68007;51.312;12.372;2023-07-20T03:04:47;21.40;77.10
3418;DHT22;68007;51.312;12.372;2023-07-20T03:07:15;21.40;77.30
3418;DHT22;68007;51.312;12.372;2023-07-20T03:09:42;21.40;77.70
3418;DHT22;68007;51.312;12.372;2023-07-20T03:12:10;21.40;77.40
3418;DHT22;68007;51.312;12.372;2023-07-20T03:14:38;21.30;77.90
3418;DHT22;68007;51.312;12.372;2023-07-20T03:17:07;21.30;77.90
3418;DHT22;68007;51.312;12.372;2023-07-20T03:19:34;21.30;77.70
3418;DHT22;68007;51.312;12.372;2023-07-20T03:22:02;21.30;77.90
3418;DHT22;68007;51.312;12.372;2023-07-20T03:24:29;21.30;77.90
3418;DHT22;68007;51.312;12.372;2023-07-20T03:26:57;21.20;78.20
3418;DHT22;68007;51.312;12.372;2023-07-20T03:29:24;21.30;78.60
3418;DHT22;68007;51.312;12.372;2023-07-20T03:31:52;21.20;78.60
3418;DHT22;68007;51.312;12.372;2023-07-20T03:34:20;21.20;78.50
3418;DHT22;68007;51.312;12.372;2023-07-20T03:36:48;21.20;78.60
3418;DHT22;68007;51.312;12.372;2023-07-20T03:39:15;21.20;79.10
3418;DHT22;68007;51.312;12.372;2023-07-20T03:41:43;21.20;78.70
3418;DHT22;68007;51.312;12.372;2023-07-20T03:44:10;21.20;78.90
3418;DHT22;68007;51.312;12.372;2023-07-20T03:46:38;21.20;78.90
3418;DHT22;68007;51.312;12.372;2023-07-20T03:49:05;21.20;79.20
3418;DHT22;68007;51.312;12.372;2023-07-20T03:51:36;21.20;78.60
3418;DHT22;68007;51.312;12.372;2023-07-20T03:54:03;21.20;78.70
3418;DHT22;68007;51.312;12.372;2023-07-20T03:56:31;21.20;79.10
3418;DHT22;68007;51.312;12.372;2023-07-20T03:59:01;21.10;79.30
3418;DHT22;68007;51.312;12.372;2023-07-20T04:01:29;21.10;79.00
3418;DHT22;68007;51.312;12.372;2023-07-20T04:03:56;21.10;79.40
3418;DHT22;68007;51.312;12.372;2023-07-20T04:06:24;21.10;79.20
3418;DHT22;68007;51.312;12.372;2023-07-20T04:08:52;21.00;79.70
3418;DHT22;68007;51.312;12.372;2023-07-20T04:11:20;21.00;79.60
3418;DHT22;68007;51.312;12.372;2023-07-20T04:13:47;21.00;79.80
3418;DHT22;68007;51.312;12.372;2023-07-20T04:16:15;21.10;79.80
3418;DHT22;68007;51.312;12.372;2023-07-20T04:18:43;21.10;79.60
3418;DHT22;68007;51.312;12.372;2023-07-20T04:21:10;21.10;79.30
3418;DHT22;68007;51.312;12.372;2023-07-20T04:23:37;21.10;79.50
3418;DHT22;68007;51.312;12.372;2023-07-20T04:26:06;21.10;79.70
3418;DHT22;68007;51.312;12.372;2023-07-20T04:28:34;21.10;79.80
3418;DHT22;68007;51.312;12.372;2023-07-20T04:31:09;21.10;79.80
3418;DHT22;68007;51.312;12.372;2023-07-20T04:33:37;21.10;79.80
3418;DHT22;68007;51.312;12.372;2023-07-20T04:36:05;21.10;80.30
3418;DHT22;68007;51.312;12.372;2023-07-20T04:38:33;21.10;80.50
3418;DHT22;68007;51.312;12.372;2023-07-20T04:41:01;21.10;80.50
3418;DHT22;68007;51.312;12.372;2023-07-20T04:43:30;21.10;80.10
3418;DHT22;68007;51.312;12.372;2023-07-20T04:45:57;21.10;80.10
3418;DHT22;68007;51.312;12.372;2023-07-20T04:48:25;21.10;80.10
3418;DHT22;68007;51.312;12.372;2023-07-20T04:50:52;21.10;79.80
3418;DHT22;68007;51.312;12.372;2023-07-20T04:53:21;21.10;80.50
3418;DHT22;68007;51.312;12.372;2023-07-20T04:55:50;21.10;80.30
3418;DHT22;68007;51.312;12.372;2023-07-20T04:58:21;21.10;80.60
3418;DHT22;68007;51.312;12.372;2023-07-20T05:00:51;21.00;80.50
3418;DHT22;68007;51.312;12.372;2023-07-20T05:03:19;21.10;80.50
3418;DHT22;68007;51.312;12.372;2023-07-20T05:05:47;21.00;80.40
3418;DHT22;68007;51.312;12.372;2023-07-20T05:08:15;21.00;80.80
3418;DHT22;68007;51.312;12.372;2023-07-20T05:10:42;21.00;80.80
3418;DHT22;68007;51.312;12.372;2023-07-20T05:13:10;21.00;81.00
3418;DHT22;68007;51.312;12.372;2023-07-20T05:15:37;21.10;80.80
3418;DHT22;68007;51.312;12.372;2023-07-20T05:18:06;21.00;80.80
3418;DHT22;68007;51.312;12.372;2023-07-20T05:20:34;21.00;81.00
3418;DHT22;68007;51.312;12.372;2023-07-20T05:23:01;20.90;81.60
3418;DHT22;68007;51.312;12.372;2023-07-20T05:25:29;20.80;82.50
3418;DHT22;68007;51.312;12.372;2023-07-20T05:27:56;20.80;82.50
3418;DHT22;68007;51.312;12.372;2023-07-20T05:30:24;20.80;82.90
3418;DHT22;68007;51.312;12.372;2023-07-20T05:32:51;20.80;82.80
3418;DHT22;68007;51.312;12.372;2023-07-20T05:35:22;20.90;82.40
3418;DHT22;68007;51.312;12.372;2023-07-20T05:37:49;20.90;82.50
3418;DHT22;68007;51.312;12.372;2023-07-20T05:40:17;20.80;82.80
3418;DHT22;68007;51.312;12.372;2023-07-20T05:42:45;20.80;82.70
3418;DHT22;68007;51.312;12.372;2023-07-20T05:45:14;20.80;82.70
3418;DHT22;68007;51.312;12.372;2023-07-20T05:47:42;20.80;82.60
3418;DHT22;68007;51.312;12.372;2023-07-20T05:50:10;20.80;82.50
3418;DHT22;68007;51.312;12.372;2023-07-20T05:52:39;20.80;82.40
3418;DHT22;68007;51.312;12.372;2023-07-20T05:55:08;20.80;82.30
3418;DHT22;68007;51.312;12.372;2023-07-20T05:57:35;20.80;82.50
3418;DHT22;68007;51.312;12.372;2023-07-20T06:00:07;20.70;82.80
3418;DHT22;68007;51.312;12.372;2023-07-20T06:02:35;20.70;82.70
3418;DHT22;68007;51.312;12.372;2023-07-20T06:05:02;20.70;82.90
3418;DHT22;68007;51.312;12.372;2023-07-20T06:07:30;20.70;83.10
3418;DHT22;68007;51.312;12.372;2023-07-20T06:09:59;20.60;83.30
3418;DHT22;68007;51.312;12.372;2023-07-20T06:12:27;20.70;83.40
3418;DHT22;68007;51.312;12.372;2023-07-20T06:14:54;20.70;83.00
3418;DHT22;68007;51.312;12.372;2023-07-20T06:17:22;20.80;82.80
3418;DHT22;68007;51.312;12.372;2023-07-20T06:19:50;20.80;82.60
3418;DHT22;68007;51.312;12.372;2023-07-20T06:22:17;20.70;82.90
3418;DHT22;68007;51.312;12.372;2023-07-20T06:24:45;20.80;83.20
3418;DHT22;68007;51.312;12.372;2023-07-20T06:27:13;20.80;83.10
3418;DHT22;68007;51.312;12.372;2023-07-20T06:29:41;20.80;82.50
3418;DHT22;68007;51.312;12.372;2023-07-20T06:32:09;20.80;82.40
3418;DHT22;68007;51.312;12.372;2023-07-20T06:34:36;20.90;82.20
3418;DHT22;68007;51.312;12.372;2023-07-20T06:37:04;20.90;82.10
3418;DHT22;68007;51.312;12.372;2023-07-20T06:39:32;20.90;82.00
3418;DHT22;68007;51.312;12.372;2023-07-20T06:41:59;20.90;82.70
3418;DHT22;68007;51.312;12.372;2023-07-20T06:44:28;21.00;82.70
3418;DHT22;68007;51.312;12.372;2023-07-20T06:46:56;20.90;82.50
3418;DHT22;68007;51.312;12.372;2023-07-20T06:49:27;20.90;82.40
3418;DHT22;68007;51.312;12.372;2023-07-20T06:51:54;21.00;82.20
3418;DHT22;68007;51.312;12.372;2023-07-20T06:54:22;21.00;82.20
3418;DHT22;68007;51.312;12.372;2023-07-20T06:56:50;21.00;81.70
3418;DHT22;68007;51.312;12.372;2023-07-20T06:59:17;21.00;81.50
3418;DHT22;68007;51.312;12.372;2023-07-20T07:01:46;20.90;81.70
3418;DHT22;68007;51.312;12.372;2023-07-20T07:04:13;20.80;81.60
3418;DHT22;68007;51.312;12.372;2023-07-20T07:06:41;20.90;81.50
3418;DHT22;68007;51.312;12.372;2023-07-20T07:09:09;20.90;81.20
3418;DHT22;68007;51.312;12.372;2023-07-20T07:11:36;20.90;80.90
3418;DHT22;68007;51.312;12.372;2023-07-20T07:14:04;20.90;81.10
3418;DHT22;68007;51.312;12.372;2023-07-20T07:16:31;20.90;81.40
3418;DHT22;68007;51.312;12.372;2023-07-20T07:19:00;21.00;81.20
3418;DHT22;68007;51.312;12.372;2023-07-20T07:21:28;20.90;80.70
3418;DHT22;68007;51.312;12.372;2023-07-20T07:23:55;21.00;80.20
3418;DHT22;68007;51.312;12.372;2023-07-20T07:26:25;20.90;80.70
3418;DHT22;68007;51.312;12.372;2023-07-20T07:28:53;20.80;80.60
3418;DHT22;68007;51.312;12.372;2023-07-20T07:31:20;20.80;80.60
3418;DHT22;68007;51.312;12.372;2023-07-20T07:33:49;20.80;80.90
3418;DHT22;68007;51.312;12.372;2023-07-20T07:36:18;20.80;80.60
3418;DHT22;68007;51.312;12.372;2023-07-20T07:38:45;20.80;80.60
3418;DHT22;68007;51.312;12.372;2023-07-20T07:41:14;20.80;80.70
3418;DHT22;68007;51.312;12.372;2023-07-20T07:43:41;20.80;80.70
3418;DHT22;68007;51.312;12.372;2023-07-20T07:46:09;20.90;80.60
3418;DHT22;68007;51.312;12.372;2023-07-20T07:48:36;20.90;80.40
3418;DHT22;68007;51.312;12.372;2023-07-20T07:51:04;20.90;80.10
3418;DHT22;68007;51.312;12.372;2023-07-20T07:53:33;20.90;79.90
3418;DHT22;68007;51.312;12.372;2023-07-20T07:56:02;20.90;80.30
3418;DHT22;68007;51.312;12.372;2023-07-20T07:58:30;20.80;80.40
3418;DHT22;68007;51.312;12.372;2023-07-20T08:00:57;20.80;80.50
3418;DHT22;68007;51.312;12.372;2023-07-20T08:03:25;20.80;80.70
3418;DHT22;68007;51.312;12.372;2023-07-20T08:05:54;20.80;80.10
3418;DHT22;68007;51.312;12.372;2023-07-20T08:08:21;20.90;80.10
3418;DHT22;68007;51.312;12.372;2023-07-20T08:10:52;20.90;80.30
3418;DHT22;68007;51.312;12.372;2023-07-20T08:13:20;21.00;79.90
3418;DHT22;68007;51.312;12.372;2023-07-20T08:15:50;21.00;79.50
3418;DHT22;68007;51.312;12.372;2023-07-20T08:18:18;21.00;79.20
3418;DHT22;68007;51.312;12.372;2023-07-20T08:20:45;21.10;79.00
3418;DHT22;68007;51.312;12.372;2023-07-20T08:23:13;21.10;79.00
3418;DHT22;68007;51.312;12.372;2023-07-20T08:25:41;21.10;78.70
3418;DHT22;68007;51.312;12.372;2023-07-20T08:28:12;21.10;78.60
3418;DHT22;68007;51.312;12.372;2023-07-20T08:30:41;21.10;79.00
3418;DHT22;68007;51.312;12.372;2023-07-20T08:33:09;21.00;79.00
3418;DHT22;68007;51.312;12.372;2023-07-20T08:35:37;21.00;79.00
3418;DHT22;68007;51.312;12.372;2023-07-20T08:38:04;21.00;79.30
3418;DHT22;68007;51.312;12.372;2023-07-20T08:40:32;20.90;79.40
3418;DHT22;68007;51.312;12.372;2023-07-20T08:43:00;20.90;79.60
3418;DHT22;68007;51.312;12.372;2023-07-20T08:45:31;20.90;80.30
3418;DHT22;68007;51.312;12.372;2023-07-20T08:48:00;20.90;80.50
3418;DHT22;68007;51.312;12.372;2023-07-20T08:50:30;20.90;80.90
3418;DHT22;68007;51.312;12.372;2023-07-20T08:52:58;20.90;80.60
3418;DHT22;68007;51.312;12.372;2023-07-20T08:55:26;21.00;80.30
3418;DHT22;68007;51.312;12.372;2023-07-20T08:57:55;21.00;80.00
3418;DHT22;68007;51.312;12.372;2023-07-20T09:00:24;21.00;80.20
3418;DHT22;68007;51.312;12.372;2023-07-20T09:02:53;21.10;80.10
3418;DHT22;68007;51.312;12.372;2023-07-20T09:05:22;21.10;79.90
3418;DHT22;68007;51.312;12.372;2023-07-20T09:07:51;21.10;79.80
3418;DHT22;68007;51.312;12.372;2023-07-20T09:10:20;21.10;79.20
3418;DHT22;68007;51.312;12.372;2023-07-20T09:12:48;21.20;79.00
3418;DHT22;68007;51.312;12.372;2023-07-20T09:15:16;21.20;78.60
3418;DHT22;68007;51.312;12.372;2023-07-20T09:17:46;21.20;78.50
3418;DHT22;68007;51.312;12.372;2023-07-20T09:20:17;21.20;78.00
3418;DHT22;68007;51.312;12.372;2023-07-20T09:22:45;21.20;78.00
3418;DHT22;68007;51.312;12.372;2023-07-20T09:25:13;21.20;77.90
3418;DHT22;68007;51.312;12.372;2023-07-20T09:27:42;21.20;78.20
3418;DHT22;68007;51.312;12.372;2023-07-20T09:30:10;21.30;78.10
3418;DHT22;68007;51.312;12.372;2023-07-20T09:32:40;21.30;78.20
3418;DHT22;68007;51.312;12.372;2023-07-20T09:35:20;21.30;78.20
3418;DHT22;68007;51.312;12.372;2023-07-20T09:37:50;21.30;78.20
3418;DHT22;68007;51.312;12.372;2023-07-20T09:40:20;21.30;78.30
3418;DHT22;68007;51.312;12.372;2023-07-20T09:42:48;21.30;78.20
3418;DHT22;68007;51.312;12.372;2023-07-20T09:45:15;21.30;78.30
3418;DHT22;68007;51.312;12.372;2023-07-20T09:47:43;21.30;78.40
3418;DHT22;68007;51.312;12.372;2023-07-20T09:50:10;21.30;78.50
3418;DHT22;68007;51.312;12.372;2023-07-20T09:52:40;21.40;78.10
3418;DHT22;68007;51.312;12.372;2023-07-20T09:55:10;21.40;77.90
3418;DHT22;68007;51.312;12.372;2023-07-20T09:57:39;21.40;79.00
3418;DHT22;68007;51.312;12.372;2023-07-20T10:00:08;21.50;80.40
3418;DHT22;68007;51.312;12.372;2023-07-20T10:02:43;21.40;83.60
3418;DHT22;68007;51.312;12.372;2023-07-20T10:05:12;21.30;83.90
3418;DHT22;68007;51.312;12.372;2023-07-20T10:07:45;21.30;84.10
3418;DHT22;68007;51.312;12.372;2023-07-20T10:10:15;21.30;84.40
3418;DHT22;68007;51.312;12.372;2023-07-20T10:12:46;21.20;84.80
3418;DHT22;68007;51.312;12.372;2023-07-20T10:15:20;21.20;85.10
3418;DHT22;68007;51.312;12.372;2023-07-20T10:17:59;21.20;85.30
3418;DHT22;68007;51.312;12.372;2023-07-20T10:20:30;21.20;85.80
3418;DHT22;68007;51.312;12.372;2023-07-20T10:23:01;21.10;86.20
3418;DHT22;68007;51.312;12.372;2023-07-20T10:25:29;21.20;86.50
3418;DHT22;68007;51.312;12.372;2023-07-20T10:27:57;21.20;86.90
3418;DHT22;68007;51.312;12.372;2023-07-20T10:30:26;21.20;87.00
3418;DHT22;68007;51.312;12.372;2023-07-20T10:32:54;21.20;87.20
3418;DHT22;68007;51.312;12.372;2023-07-20T10:35:21;21.20;87.40
3418;DHT22;68007;51.312;12.372;2023-07-20T10:37:51;21.20;87.30
3418;DHT22;68007;51.312;12.372;2023-07-20T10:40:30;21.20;87.20
3418;DHT22;68007;51.312;12.372;2023-07-20T10:43:00;21.20;88.00
3418;DHT22;68007;51.312;12.372;2023-07-20T10:45:41;21.20;87.00
3418;DHT22;68007;51.312;12.372;2023-07-20T10:48:16;21.20;86.40
3418;DHT22;68007;51.312;12.372;2023-07-20T10:50:46;21.10;87.20
3418;DHT22;68007;51.312;12.372;2023-07-20T10:53:15;21.10;87.20
3418;DHT22;68007;51.312;12.372;2023-07-20T10:55:44;21.10;87.20
3418;DHT22;68007;51.312;12.372;2023-07-20T10:58:13;21.10;87.20
3418;DHT22;68007;51.312;12.372;2023-07-20T11:00:56;21.10;87.50
3418;DHT22;68007;51.312;12.372;2023-07-20T11:03:30;21.10;88.00
3418;DHT22;68007;51.312;12.372;2023-07-20T11:05:58;21.20;88.00
3418;DHT22;68007;51.312;12.372;2023-07-20T11:08:39;21.10;88.10
3418;DHT22;68007;51.312;12.372;2023-07-20T11:11:27;21.20;88.20
3418;DHT22;68007;51.312;12.372;2023-07-20T11:13:56;21.20;88.70
3418;DHT22;68007;51.312;12.372;2023-07-20T11:16:38;21.20;88.80
3418;DHT22;68007;51.312;12.372;2023-07-20T11:19:13;21.30;88.40
3418;DHT22;68007;51.312;12.372;2023-07-20T11:21:44;21.30;88.40
3418;DHT22;68007;51.312;12.372;2023-07-20T11:24:11;21.30;88.00
3418;DHT22;68007;51.312;12.372;2023-07-20T11:26:44;21.30;88.10
3418;DHT22;68007;51.312;12.372;2023-07-20T11:29:12;21.30;88.10
3418;DHT22;68007;51.312;12.372;2023-07-20T11:31:42;21.30;87.90
3418;DHT22;68007;51.312;12.372;2023-07-20T11:34:11;21.30;87.50
3418;DHT22;68007;51.312;12.372;2023-07-20T11:36:40;21.30;86.80
3418;DHT22;68007;51.312;12.372;2023-07-20T11:39:09;21.30;86.50
3418;DHT22;68007;51.312;12.372;2023-07-20T11:41:38;21.30;86.60
3418;DHT22;68007;51.312;12.372;2023-07-20T11:44:07;21.30;86.30
3418;DHT22;68007;51.312;12.372;2023-07-20T11:46:39;21.30;86.40
3418;DHT22;68007;51.312;12.372;2023-07-20T11:49:07;21.30;86.80
3418;DHT22;68007;51.312;12.372;2023-07-20T11:51:35;21.30;85.80
3418;DHT22;68007;51.312;12.372;2023-07-20T11:54:03;21.30;85.80
3418;DHT22;68007;51.312;12.372;2023-07-20T11:56:31;21.30;86.40
3418;DHT22;68007;51.312;12.372;2023-07-20T11:58:59;21.30;86.20
3418;DHT22;68007;51.312;12.372;2023-07-20T12:01:30;21.30;86.10
3418;DHT22;68007;51.312;12.372;2023-07-20T12:04:00;21.30;86.00
3418;DHT22;68007;51.312;12.372;2023-07-20T12:06:29;21.30;85.80
3418;DHT22;68007;51.312;12.372;2023-07-20T12:08:58;21.30;85.50
3418;DHT22;68007;51.312;12.372;2023-07-20T12:11:33;21.20;85.40
3418;DHT22;68007;51.312;12.372;2023-07-20T12:14:01;21.20;85.90
3418;DHT22;68007;51.312;12.372;2023-07-20T12:16:31;21.20;86.40
3418;DHT22;68007;51.312;12.372;2023-07-20T12:19:02;21.20;86.20
3418;DHT22;68007;51.312;12.372;2023-07-20T12:21:29;21.30;86.30
3418;DHT22;68007;51.312;12.372;2023-07-20T12:23:58;21.30;85.90
3418;DHT22;68007;51.312;12.372;2023-07-20T12:26:26;21.30;85.90
3418;DHT22;68007;51.312;12.372;2023-07-20T12:28:53;21.40;86.00
3418;DHT22;68007;51.312;12.372;2023-07-20T12:31:21;21.40;86.70
3418;DHT22;68007;51.312;12.372;2023-07-20T12:33:52;21.40;86.40
3418;DHT22;68007;51.312;12.372;2023-07-20T12:36:21;21.50;86.10
3418;DHT22;68007;51.312;12.372;2023-07-20T12:38:48;21.50;85.90
3418;DHT22;68007;51.312;12.372;2023-07-20T12:41:16;21.50;86.20
3418;DHT22;68007;51.312;12.372;2023-07-20T12:43:45;21.50;86.60
3418;DHT22;68007;51.312;12.372;2023-07-20T12:46:13;21.50;86.20
3418;DHT22;68007;51.312;12.372;2023-07-20T12:48:41;21.60;85.80
3418;DHT22;68007;51.312;12.372;2023-07-20T12:51:11;21.60;85.70
3418;DHT22;68007;51.312;12.372;2023-07-20T12:53:39;21.60;85.70
3418;DHT22;68007;51.312;12.372;2023-07-20T12:56:06;21.60;85.30
3418;DHT22;68007;51.312;12.372;2023-07-20T12:58:34;21.60;86.00
3418;DHT22;68007;51.312;12.372;2023-07-20T13:01:03;21.70;87.00
3418;DHT22;68007;51.312;12.372;2023-07-20T13:03:30;21.80;86.30
3418;DHT22;68007;51.312;12.372;2023-07-20T13:05:59;21.80;86.20
3418;DHT22;68007;51.312;12.372;2023-07-20T13:08:28;21.80;85.40
3418;DHT22;68007;51.312;12.372;2023-07-20T13:10:55;21.90;84.20
3418;DHT22;68007;51.312;12.372;2023-07-20T13:13:23;21.90;83.10
3418;DHT22;68007;51.312;12.372;2023-07-20T13:15:50;21.90;82.80
3418;DHT22;68007;51.312;12.372;2023-07-20T13:18:18;21.90;82.20
3418;DHT22;68007;51.312;12.372;2023-07-20T13:20:45;21.90;81.80
3418;DHT22;68007;51.312;12.372;2023-07-20T13:23:13;21.80;81.20
3418;DHT22;68007;51.312;12.372;2023-07-20T13:25:42;21.90;81.20
3418;DHT22;68007;51.312;12.372;2023-07-20T13:28:10;21.90;81.00
3418;DHT22;68007;51.312;12.372;2023-07-20T13:30:37;21.90;81.50
3418;DHT22;68007;51.312;12.372;2023-07-20T13:33:05;21.90;80.70
3418;DHT22;68007;51.312;12.372;2023-07-20T13:35:32;22.00;80.40
3418;DHT22;68007;51.312;12.372;2023-07-20T13:37:59;22.00;80.50
3418;DHT22;68007;51.312;12.372;2023-07-20T13:40:27;22.00;80.50
3418;DHT22;68007;51.312;12.372;2023-07-20T13:42:56;22.10;79.70
3418;DHT22;68007;51.312;12.372;2023-07-20T13:45:23;22.10;78.80
3418;DHT22;68007;51.312;12.372;2023-07-20T13:47:51;22.10;78.40
3418;DHT22;68007;51.312;12.372;2023-07-20T13:50:19;22.10;78.00
3418;DHT22;68007;51.312;12.372;2023-07-20T13:52:46;22.10;78.20
3418;DHT22;68007;51.312;12.372;2023-07-20T13:55:14;22.10;77.80
3418;DHT22;68007;51.312;12.372;2023-07-20T13:57:42;22.10;78.70
3418;DHT22;68007;51.312;12.372;2023-07-20T14:00:12;22.20;79.50
3418;DHT22;68007;51.312;12.372;2023-07-20T14:02:39;22.20;77.60
3418;DHT22;68007;51.312;12.372;2023-07-20T14:05:08;22.30;77.20
3418;DHT22;68007;51.312;12.372;2023-07-20T14:07:35;22.30;77.40
3418;DHT22;68007;51.312;12.372;2023-07-20T14:10:03;22.30;76.60
3418;DHT22;68007;51.312;12.372;2023-07-20T14:12:31;22.30;76.00
3418;DHT22;68007;51.312;12.372;2023-07-20T14:14:59;22.30;75.50
3418;DHT22;68007;51.312;12.372;2023-07-20T14:17:28;22.30;76.00
3418;DHT22;68007;51.312;12.372;2023-07-20T14:19:55;22.40;75.30
3418;DHT22;68007;51.312;12.372;2023-07-20T14:22:23;22.40;75.30
3418;DHT22;68007;51.312;12.372;2023-07-20T14:24:50;22.40;74.10
3418;DHT22;68007;51.312;12.372;2023-07-20T14:27:18;22.50;73.90
3418;DHT22;68007;51.312;12.372;2023-07-20T14:29:45;22.60;72.90
3418;DHT22;68007;51.312;12.372;2023-07-20T14:32:13;22.60;72.30
3418;DHT22;68007;51.312;12.372;2023-07-20T14:34:41;22.60;71.40
3418;DHT22;68007;51.312;12.372;2023-07-20T14:37:09;22.70;72.20
3418;DHT22;68007;51.312;12.372;2023-07-20T14:39:38;22.70;71.40
3418;DHT22;68007;51.312;12.372;2023-07-20T14:42:06;22.80;70.50
3418;DHT22;68007;51.312;12.372;2023-07-20T14:44:33;22.90;69.30
3418;DHT22;68007;51.312;12.372;2023-07-20T14:47:01;22.90;68.80
3418;DHT22;68007;51.312;12.372;2023-07-20T14:49:28;23.00;67.90
3418;DHT22;68007;51.312;12.372;2023-07-20T14:51:57;23.00;67.30
3418;DHT22;68007;51.312;12.372;2023-07-20T14:54:25;23.10;67.50
3418;DHT22;68007;51.312;12.372;2023-07-20T14:56:53;23.00;67.20
3418;DHT22;68007;51.312;12.372;2023-07-20T14:59:20;23.10;66.80
3418;DHT22;68007;51.312;12.372;2023-07-20T15:01:48;23.10;65.20
3418;DHT22;68007;51.312;12.372;2023-07-20T15:04:15;23.20;64.70
3418;DHT22;68007;51.312;12.372;2023-07-20T15:06:43;23.20;64.50
3418;DHT22;68007;51.312;12.372;2023-07-20T15:09:12;23.30;65.00
3418;DHT22;68007;51.312;12.372;2023-07-20T15:11:40;23.20;66.00
3418;DHT22;68007;51.312;12.372;2023-07-20T15:14:07;23.30;65.60
3418;DHT22;68007;51.312;12.372;2023-07-20T15:16:35;23.30;64.50
3418;DHT22;68007;51.312;12.372;2023-07-20T15:19:03;23.30;64.00
3418;DHT22;68007;51.312;12.372;2023-07-20T15:21:31;23.30;64.00
3418;DHT22;68007;51.312;12.372;2023-07-20T15:23:59;23.30;64.10
3418;DHT22;68007;51.312;12.372;2023-07-20T15:26:27;23.30;64.20
3418;DHT22;68007;51.312;12.372;2023-07-20T15:28:55;23.40;64.30
3418;DHT22;68007;51.312;12.372;2023-07-20T15:31:24;23.40;63.10
3418;DHT22;68007;51.312;12.372;2023-07-20T15:33:52;23.40;62.50
3418;DHT22;68007;51.312;12.372;2023-07-20T15:36:19;23.40;62.60
3418;DHT22;68007;51.312;12.372;2023-07-20T15:38:47;23.30;62.30